Bay Bridge — 3FCS5 — position and weather

sailwx.info

Track history (hours):
 
Tides and Currents Weather Stations Pressure Air Temp Water Temp Dewpoint Dewpoint Depression Visibility Wind Speed Wind Dir Waves Ship Positions

Bay Bridge

Last reported at 2017-Oct-12 11:14 UTC. Time now 2017-Oct-18 20:40 UTC.
Position N 38°10' W 124°40'.

Length 267 m; draft 12 m.

Type: Ship (hazmat cat A). MMSI: 354120000.

Date/timePositionNaut miles runAvg speedWind from/ knotsBaromVisibWave heightAir tempDewpointWater temp
2017-Oct-12 11:14N 38°10' W 124°40'810.0
2017-Oct-12 10:27N 38°10' W 124°30'5 9.8
2017-Oct-12 09:59N 38°10' W 124°24'5 9.8
2017-Oct-12 09:30N 38°10' W 124°18'5 9.7
2017-Oct-12 09:00N 38°10' W 124°12'5 9.5
2017-Oct-12 08:30N 38°10' W 124°06'5 9.2
2017-Oct-12 08:00N 38°10' W 124°00'5 9.1
2017-Oct-12 07:30N 38°09' W 123°54'5 9.5
2017-Oct-12 07:00N 38°10' W 123°48'5 9.7
2017-Oct-12 06:30N 38°09' W 123°42'5 9.4
2017-Oct-12 06:00N 38°10' W 123°36'5 9.1
2017-Oct-12 05:30N 38°09' W 123°30'4 8.8
2017-Oct-12 05:00N 38°09' W 123°25'611.1
2017-Oct-12 04:30N 38°07' W 123°18'5 9.9
2017-Oct-12 04:00N 38°03' W 123°14'510.1
2017-Oct-12 03:30N 37°60' W 123°10'5 9.8
2017-Oct-12 03:00N 37°57' W 123°05'5 9.9
2017-Oct-12 02:30N 37°54' W 122°59'5 9.9
2017-Oct-12 02:00N 37°52' W 122°54'510.2
2017-Oct-12 01:30N 37°49' W 122°48'510.0
2017-Oct-12 01:00N 37°47' W 122°43'4 7.0
2017-Oct-12 00:30N 37°46' W 122°39'714.8
2017-Oct-12 00:00N 37°49' W 122°30'611.7
2017-Oct-11 23:31N 37°48' W 122°23'2 4.9
2017-Oct-11 23:00N 37°49' W 122°20'0 0.0
2017-Oct-11 22:30N 37°49' W 122°20'0 0.0
2017-Oct-11 22:00N 37°49' W 122°20'0 0.0
2017-Oct-11 21:30N 37°49' W 122°20'0 0.0
2017-Oct-11 21:00N 37°49' W 122°20'0 0.0
2017-Oct-11 20:30N 37°49' W 122°20'0 0.0
2017-Oct-11 20:00N 37°49' W 122°20'0 0.0
2017-Oct-11 19:30N 37°49' W 122°20'0 0.0
2017-Oct-11 19:00N 37°49' W 122°20'0 0.0
2017-Oct-11 18:30N 37°49' W 122°20'0 0.0
2017-Oct-11 18:00N 37°49' W 122°20'0 0.0
2017-Oct-11 17:30N 37°49' W 122°20'0 0.0
2017-Oct-11 17:00N 37°49' W 122°20'0 0.0
2017-Oct-11 00:00N 37°49' W 122°20'1 1.1
2017-Oct-10 23:30N 37°49' W 122°20'5 9.4
2017-Oct-10 23:00N 37°49' W 122°26'816.7
2017-Oct-10 22:30N 37°46' W 122°36'510.8
2017-Oct-10 22:00N 37°43' W 122°41'611.3
2017-Oct-10 21:30N 37°37' W 122°40'612.0
2017-Oct-10 21:00N 37°31' W 122°40'510.1
2017-Oct-10 20:30N 37°26' W 122°40'5 9.9
2017-Oct-10 20:00N 37°21' W 122°40'511.0
2017-Oct-10 19:30N 37°16' W 122°40'510.8
2017-Oct-10 19:00N 37°10' W 122°39'0 0.5
2017-Oct-10 18:29N 37°10' W 122°39'0 0.8
2017-Oct-10 17:59N 37°11' W 122°39'0 0.5
2017-Oct-10 17:29N 37°10' W 122°39'0 0.9
2017-Oct-10 16:59N 37°11' W 122°40'1 1.0
2017-Oct-10 16:23N 37°11' W 122°40'0 0.9
2017-Oct-10 15:59N 37°11' W 122°41'0 0.4
2017-Oct-10 15:29N 37°11' W 122°41'0 0.8
2017-Oct-10 14:58N 37°11' W 122°41'1 0.9
2017-Oct-10 14:00N 37°11' W 122°40'0 0.2
2017-Oct-10 13:30N 37°11' W 122°39'0 0.8
2017-Oct-10 12:58N 37°11' W 122°39'0 0.3
2017-Oct-10 12:30N 37°11' W 122°39'0 0.5
2017-Oct-10 12:00N 37°11' W 122°39'0 0.9
2017-Oct-10 11:30N 37°12' W 122°39'0 0.8
2017-Oct-10 11:00N 37°12' W 122°39'0 0.7
2017-Oct-10 10:30N 37°12' W 122°39'0 0.9
2017-Oct-10 10:00N 37°13' W 122°39'0 0.8
2017-Oct-10 09:29N 37°13' W 122°38'0 0.2
2017-Oct-10 08:59N 37°13' W 122°38'1 1.2
2017-Oct-10 08:29N 37°12' W 122°37'0 0.5
2017-Oct-10 07:59N 37°12' W 122°38'0 0.5
2017-Oct-10 07:29N 37°13' W 122°38'0 0.2
2017-Oct-10 06:59N 37°13' W 122°38'1 1.4
2017-Oct-10 06:30N 37°12' W 122°37'4 8.2
2017-Oct-10 06:00N 37°12' W 122°42'815.1
2017-Oct-10 05:30N 37°13' W 122°52'3 5.4
2017-Oct-10 05:00N 37°14' W 122°55'1 1.1
2017-Oct-10 04:31N 37°13' W 122°54'0 0.9
2017-Oct-10 04:00N 37°13' W 122°54'1 1.3
2017-Oct-10 03:31N 37°13' W 122°54'1 1.2
2017-Oct-10 03:00N 37°12' W 122°53'0 0.7
2017-Oct-10 02:31N 37°12' W 122°53'1 1.3
2017-Oct-10 02:00N 37°11' W 122°53'3 5.4
2017-Oct-10 01:30N 37°11' W 122°49'1 1.6
2017-Oct-10 01:01N 37°11' W 122°50'3 5.6
2017-Oct-10 00:30N 37°09' W 122°48'611.9
2017-Oct-10 00:00N 37°14' W 122°43'3 6.5
2017-Oct-09 23:30N 37°15' W 122°39'0 0.6
2017-Oct-09 23:00N 37°15' W 122°39'0 0.6
2017-Oct-09 22:30N 37°15' W 122°40'0 0.6
2017-Oct-09 22:00N 37°15' W 122°40'0 0.3
2017-Oct-09 21:30N 37°15' W 122°40'1 3.0
2017-Oct-09 21:00N 37°14' W 122°39'0 0.7
2017-Oct-09 20:30N 37°14' W 122°39'0 0.5
2017-Oct-09 20:00N 37°14' W 122°39'2 3.6
2017-Oct-09 19:30N 37°12' W 122°38'611.4
2017-Oct-09 19:00N 37°06' W 122°37'611.6
2017-Oct-09 18:30N 37°01' W 122°35'611.4
2017-Oct-09 18:00N 36°55' W 122°32'611.4
2017-Oct-09 17:29N 36°50' W 122°30'3911.5
2017-Oct-09 14:08N 36°14' W 122°11'211.5
2017-Oct-09 14:00N 36°13' W 122°10'2211.3
2017-Oct-09 12:03N 35°54' W 121°56'111.5
2017-Oct-09 11:57N 35°53' W 121°56'611.3
2017-Oct-09 11:27N 35°48' W 121°52'1711.4
2017-Oct-09 09:55N 35°33' W 121°41'511.4
2017-Oct-09 09:30N 35°29' W 121°38'611.6
2017-Oct-09 09:00N 35°24' W 121°34'711.9
2017-Oct-09 08:26N 35°19' W 121°30'510.9
2017-Oct-09 08:00N 35°15' W 121°27'611.4
2017-Oct-09 07:30N 35°10' W 121°23'612.0
2017-Oct-09 06:59N 35°05' W 121°19'611.1
2017-Oct-09 06:28N 34°60' W 121°15'511.7
2017-Oct-09 06:00N 34°55' W 121°12'611.4
2017-Oct-09 05:30N 34°50' W 121°09'611.3
2017-Oct-09 05:00N 34°45' W 121°05'611.4
2017-Oct-09 04:30N 34°40' W 121°02'611.8
2017-Oct-09 04:00N 34°35' W 120°58'611.8
2017-Oct-09 03:30N 34°30' W 120°54'510.8
2017-Oct-09 03:00N 34°26' W 120°50'5 9.8
2017-Oct-09 02:28N 34°25' W 120°44'510.0
2017-Oct-09 01:59N 34°23' W 120°38'5 9.7
2017-Oct-09 01:27N 34°22' W 120°32'410.0
2017-Oct-09 01:00N 34°21' W 120°27'5 9.9
2017-Oct-09 00:29N 34°19' W 120°21'510.0
2017-Oct-09 00:00N 34°18' W 120°16'510.0
2017-Oct-08 23:30N 34°17' W 120°10'5 9.7
2017-Oct-08 22:59N 34°15' W 120°04'5 9.9
2017-Oct-08 22:30N 34°14' W 119°58'5 9.7
2017-Oct-08 22:00N 34°13' W 119°53'5 9.7
2017-Oct-08 21:29N 34°11' W 119°47'510.0
2017-Oct-08 21:00N 34°10' W 119°41'5 9.6
2017-Oct-08 20:30N 34°09' W 119°36'5 9.9
2017-Oct-08 20:00N 34°08' W 119°30'611.4
2017-Oct-08 19:31N 34°06' W 119°23'611.5
2017-Oct-08 19:00N 34°05' W 119°17'611.2
2017-Oct-08 18:30N 34°02' W 119°11'611.2
2017-Oct-08 18:00N 33°59' W 119°05'611.6
2017-Oct-08 17:31N 33°56' W 118°59'611.5
2017-Oct-08 17:01N 33°54' W 118°53'611.3
2017-Oct-08 16:30N 33°51' W 118°47'611.6
2017-Oct-08 16:00N 33°48' W 118°41'611.4
2017-Oct-08 15:30N 33°45' W 118°35'611.3
2017-Oct-08 15:00N 33°42' W 118°29'510.5
2017-Oct-08 14:30N 33°40' W 118°23'510.4
2017-Oct-08 14:00N 33°38' W 118°17'5 9.9
2017-Oct-08 13:31N 33°40' W 118°12'4 7.4
2017-Oct-08 13:00N 33°44' W 118°11'1 2.0
2017-Oct-08 12:30N 33°45' W 118°12'0 0.0
2017-Oct-08 12:00N 33°45' W 118°12'0 0.0
2017-Oct-08 11:30N 33°45' W 118°12'0 0.0
2017-Oct-08 11:00N 33°45' W 118°12'0 0.0
2017-Oct-08 10:30N 33°45' W 118°12'0 0.0
2017-Oct-08 10:00N 33°45' W 118°12'0 0.0
2017-Oct-08 09:30N 33°45' W 118°12'0 0.0
2017-Oct-08 09:00N 33°45' W 118°12'0 0.1
2017-Oct-08 08:30N 33°45' W 118°12'0 0.1
2017-Oct-08 08:00N 33°45' W 118°12'0 0.0
2017-Oct-08 07:30N 33°45' W 118°12'0 0.0
2017-Oct-08 07:00N 33°45' W 118°12'0 0.1
2017-Oct-08 06:30N 33°45' W 118°12'0 0.0
2017-Oct-08 06:00N 33°45' W 118°12'0 0.1
2017-Oct-08 05:30N 33°45' W 118°12'0 0.1
2017-Oct-08 05:00N 33°45' W 118°12'0 0.1
2017-Oct-08 04:30N 33°45' W 118°12'0 0.0
2017-Oct-08 04:00N 33°45' W 118°12'0 0.0
2017-Oct-08 03:30N 33°45' W 118°12'0 0.0
2017-Oct-08 03:00N 33°45' W 118°12'0 0.0
2017-Oct-08 02:30N 33°45' W 118°12'0 0.0
2017-Oct-08 01:57N 33°45' W 118°12'0 0.0
2017-Oct-08 01:30N 33°45' W 118°12'0 0.1
2017-Oct-08 00:59N 33°45' W 118°12'0 0.1
2017-Oct-08 00:30N 33°45' W 118°12'0 0.1
2017-Oct-07 23:59N 33°45' W 118°12'0 0.0
2017-Oct-07 23:30N 33°45' W 118°12'0 0.1
2017-Oct-07 23:00N 33°45' W 118°12'0 0.0
2017-Oct-07 22:27N 33°45' W 118°12'0 0.1
2017-Oct-07 22:00N 33°45' W 118°12'0 0.1
2017-Oct-07 21:29N 33°45' W 118°12'0 0.0
2017-Oct-07 21:00N 33°45' W 118°12'0 0.1
2017-Oct-07 20:26N 33°45' W 118°12'0 0.0
2017-Oct-07 19:59N 33°45' W 118°12'0 0.0
2017-Oct-07 19:30N 33°45' W 118°12'0 0.0
2017-Oct-07 19:00N 33°45' W 118°12'0 0.1
2017-Oct-07 18:30N 33°45' W 118°12'0 0.0
2017-Oct-07 18:00N 33°45' W 118°12'0 0.0
2017-Oct-07 17:30N 33°45' W 118°12'0 0.0
2017-Oct-07 17:00N 33°45' W 118°12'0 0.1
2017-Oct-07 16:29N 33°45' W 118°12'0 0.1
2017-Oct-07 16:00N 33°45' W 118°12'0 0.0
2017-Oct-07 15:29N 33°45' W 118°12'0 0.0
2017-Oct-07 15:00N 33°45' W 118°12'0 0.0
2017-Oct-07 14:29N 33°45' W 118°12'0 0.0
2017-Oct-07 13:59N 33°45' W 118°12'0 0.1
2017-Oct-07 13:30N 33°45' W 118°12'0 0.0
2017-Oct-07 13:00N 33°45' W 118°12'0 0.1
2017-Oct-07 12:29N 33°45' W 118°12'0 0.1
2017-Oct-07 11:59N 33°45' W 118°12'0 0.1
2017-Oct-07 11:30N 33°45' W 118°12'0 0.1
2017-Oct-07 10:59N 33°45' W 118°12'0 0.1
2017-Oct-07 10:30N 33°45' W 118°12'0 0.0
2017-Oct-07 09:59N 33°45' W 118°12'0 0.0
2017-Oct-07 09:26N 33°45' W 118°12'0 0.0
2017-Oct-07 08:59N 33°45' W 118°12'0 0.0
2017-Oct-07 08:29N 33°45' W 118°12'0 0.0
2017-Oct-07 07:59N 33°45' W 118°12'0 0.1
2017-Oct-07 07:29N 33°45' W 118°12'0 0.1
2017-Oct-07 06:59N 33°45' W 118°12'0 0.0
2017-Oct-07 06:29N 33°45' W 118°12'0 0.1
2017-Oct-07 05:59N 33°45' W 118°12'0 0.0
2017-Oct-07 05:29N 33°45' W 118°12'0 0.1
2017-Oct-07 04:59N 33°45' W 118°12'0 0.0
2017-Oct-07 04:29N 33°45' W 118°12'0 0.1
2017-Oct-07 03:59N 33°45' W 118°12'0 0.1
2017-Oct-07 03:29N 33°45' W 118°12'0 0.1
2017-Oct-07 02:59N 33°45' W 118°12'0 0.0
2017-Oct-07 02:29N 33°45' W 118°12'0 0.1
2017-Oct-07 01:59N 33°45' W 118°12'0 0.0
2017-Oct-07 01:29N 33°45' W 118°12'0 0.1
2017-Oct-07 00:59N 33°45' W 118°12'0 0.1
2017-Oct-07 00:29N 33°45' W 118°12'0 0.0
2017-Oct-06 23:59N 33°45' W 118°12'0 0.0
2017-Oct-06 23:29N 33°45' W 118°12'0 0.0
2017-Oct-06 22:59N 33°45' W 118°12'0 0.0
2017-Oct-06 22:29N 33°45' W 118°12'0 0.0
2017-Oct-06 21:59N 33°45' W 118°12'0 0.0
2017-Oct-06 21:29N 33°45' W 118°12'0 0.0
2017-Oct-06 20:59N 33°45' W 118°12'0 0.0
2017-Oct-06 20:29N 33°45' W 118°12'0 0.0
2017-Oct-06 19:59N 33°45' W 118°12'0 0.0
2017-Oct-06 19:29N 33°45' W 118°12'0 0.0
2017-Oct-06 18:59N 33°45' W 118°12'0 0.0
2017-Oct-06 18:29N 33°45' W 118°12'0 0.0
2017-Oct-06 17:59N 33°45' W 118°12'0 0.1
2017-Oct-06 17:29N 33°45' W 118°12'0 0.0
2017-Oct-06 16:59N 33°45' W 118°12'0 0.1
2017-Oct-06 16:29N 33°45' W 118°12'0 0.0
2017-Oct-06 15:59N 33°45' W 118°12'0 0.0
2017-Oct-06 15:29N 33°45' W 118°12'0 0.1
2017-Oct-06 14:59N 33°45' W 118°12'0 0.0
2017-Oct-06 14:29N 33°45' W 118°12'0 0.0
2017-Oct-06 13:59N 33°45' W 118°12'0 0.1
2017-Oct-06 13:29N 33°45' W 118°12'0 0.0
2017-Oct-06 12:59N 33°45' W 118°12'0 0.1
2017-Oct-06 12:29N 33°45' W 118°12'0 0.1
2017-Oct-06 11:59N 33°45' W 118°12'0 0.1
2017-Oct-06 11:29N 33°45' W 118°12'0 0.1
2017-Oct-06 10:59N 33°45' W 118°12'0 0.0
2017-Oct-06 10:29N 33°45' W 118°12'0 0.1
2017-Oct-06 09:59N 33°45' W 118°12'0 0.1
2017-Oct-06 09:26N 33°45' W 118°12'0 0.1
2017-Oct-06 08:59N 33°45' W 118°12'0 0.0
2017-Oct-06 08:29N 33°45' W 118°12'0 0.0
2017-Oct-06 07:59N 33°45' W 118°12'0 0.1
2017-Oct-06 07:29N 33°45' W 118°12'0 0.0
2017-Oct-06 06:59N 33°45' W 118°12'0 0.0
2017-Oct-06 06:29N 33°45' W 118°12'0 0.1
2017-Oct-06 05:59N 33°45' W 118°12'0 0.1
2017-Oct-06 05:29N 33°45' W 118°12'0 0.1
2017-Oct-06 04:59N 33°45' W 118°12'0 0.1
2017-Oct-06 04:29N 33°45' W 118°12'0 0.0
2017-Oct-06 03:59N 33°45' W 118°12'0 0.0
2017-Oct-06 03:29N 33°45' W 118°12'0 0.0
2017-Oct-06 02:59N 33°45' W 118°12'0 0.0
2017-Oct-06 02:29N 33°45' W 118°12'0 0.1
2017-Oct-06 01:59N 33°45' W 118°12'0 0.1
2017-Oct-06 01:29N 33°45' W 118°12'0 0.0
2017-Oct-06 00:56N 33°45' W 118°12'0 0.0
2017-Oct-06 00:29N 33°45' W 118°12'0 0.0
2017-Oct-05 23:59N 33°45' W 118°12'0 0.0
2017-Oct-05 23:29N 33°45' W 118°12'0 0.0
2017-Oct-05 22:59N 33°45' W 118°12'0 0.0
2017-Oct-05 22:29N 33°45' W 118°12'0 0.0
2017-Oct-05 21:59N 33°45' W 118°12'0 0.0
2017-Oct-05 21:29N 33°45' W 118°12'0 0.0
2017-Oct-05 20:59N 33°45' W 118°12'0 0.0
2017-Oct-05 20:29N 33°45' W 118°12'0 0.1
2017-Oct-05 19:59N 33°45' W 118°12'0 0.0
2017-Oct-05 19:29N 33°45' W 118°12'0 0.1
2017-Oct-05 18:59N 33°45' W 118°12'0 0.0
2017-Oct-05 18:29N 33°45' W 118°12'0 0.0
2017-Oct-05 17:59N 33°45' W 118°12'0 0.1
2017-Oct-05 17:29N 33°45' W 118°12'0 0.0
2017-Oct-05 16:59N 33°45' W 118°12'0 0.0
2017-Oct-05 15:29N 33°45' W 118°12'0 0.0
2017-Oct-05 14:59N 33°45' W 118°12'0 0.1
2017-Oct-05 14:29N 33°45' W 118°12'0 0.1
2017-Oct-05 13:59N 33°45' W 118°12'0 0.0
2017-Oct-05 13:29N 33°45' W 118°12'0 0.1
2017-Oct-05 12:59N 33°45' W 118°12'0 0.0
2017-Oct-05 12:29N 33°45' W 118°12'0 0.1
2017-Oct-05 11:59N 33°45' W 118°12'0 0.0
2017-Oct-05 11:29N 33°45' W 118°12'0 0.0
2017-Oct-05 10:59N 33°45' W 118°12'0 0.0
2017-Oct-05 10:29N 33°45' W 118°12'0 0.0
2017-Oct-05 09:59N 33°45' W 118°12'0 0.1
2017-Oct-05 09:29N 33°45' W 118°12'0 0.1
2017-Oct-05 08:59N 33°45' W 118°12'0 0.1
2017-Oct-05 08:29N 33°45' W 118°12'0 0.0
2017-Oct-05 07:59N 33°45' W 118°12'0 0.0
2017-Oct-05 07:29N 33°45' W 118°12'0 0.1
2017-Oct-05 06:59N 33°45' W 118°12'0 0.0
2017-Oct-05 06:29N 33°45' W 118°12'0 0.0
2017-Oct-05 05:59N 33°45' W 118°12'0 0.0
2017-Oct-05 05:29N 33°45' W 118°12'0 0.0
2017-Oct-05 04:59N 33°45' W 118°12'0 0.1
2017-Oct-05 04:29N 33°45' W 118°12'0 0.1
2017-Oct-05 03:59N 33°45' W 118°12'0 0.1
2017-Oct-05 03:29N 33°45' W 118°12'0 0.1
2017-Oct-05 02:59N 33°45' W 118°12'0 0.0
2017-Oct-05 02:29N 33°45' W 118°12'0 0.1
2017-Oct-05 01:59N 33°45' W 118°12'0 0.0
2017-Oct-05 01:26N 33°45' W 118°12'0 0.0
2017-Oct-05 00:59N 33°45' W 118°12'0 0.1
2017-Oct-05 00:29N 33°45' W 118°12'0 0.1
2017-Oct-04 23:59N 33°45' W 118°12'0 0.0
2017-Oct-04 23:29N 33°45' W 118°12'0 0.0
2017-Oct-04 22:59N 33°45' W 118°12'0 0.1
2017-Oct-04 22:29N 33°45' W 118°12'0 0.0
2017-Oct-04 21:59N 33°45' W 118°12'0 0.2
2017-Oct-04 21:30N 33°45' W 118°12'2 3.9
2017-Oct-04 21:00N 33°43' W 118°11'510.2
2017-Oct-04 20:30N 33°38' W 118°11'4 9.0
2017-Oct-04 20:00N 33°36' W 118°16'510.3
2017-Oct-04 19:30N 33°37' W 118°22'510.9
2017-Oct-04 19:00N 33°40' W 118°28'510.7
2017-Oct-04 18:30N 33°42' W 118°34'510.7
2017-Oct-04 18:00N 33°45' W 118°39'510.8
2017-Oct-04 17:30N 33°48' W 118°45'510.9
2017-Oct-04 17:00N 33°50' W 118°51'510.8
2017-Oct-04 16:30N 33°53' W 118°56'510.9
2017-Oct-04 16:00N 33°56' W 119°02'510.8
2017-Oct-04 15:30N 33°58' W 119°08'511.0
2017-Oct-04 15:00N 34°01' W 119°13'510.9
2017-Oct-04 14:30N 34°03' W 119°19'510.8
2017-Oct-04 14:00N 34°05' W 119°26'510.0
2017-Oct-04 13:30N 34°06' W 119°32'5 9.9
2017-Oct-04 13:00N 34°07' W 119°37'5 9.9
2017-Oct-04 12:30N 34°09' W 119°43'5 9.8
2017-Oct-04 12:00N 34°10' W 119°49'5 9.7
2017-Oct-04 11:28N 34°11' W 119°55'4 9.7
2017-Oct-04 11:00N 34°12' W 120°00'5 9.8
2017-Oct-04 10:29N 34°14' W 120°06'5 9.9
2017-Oct-04 10:00N 34°15' W 120°12'510.0
2017-Oct-04 09:30N 34°16' W 120°17'5 9.9
2017-Oct-04 09:00N 34°18' W 120°23'5 9.9
2017-Oct-04 08:29N 34°19' W 120°29'5 9.6
2017-Oct-04 07:56N 34°20' W 120°35'410.0
2017-Oct-04 07:30N 34°21' W 120°40'6 9.8
2017-Oct-04 06:54N 34°23' W 120°47'410.0
2017-Oct-04 06:30N 34°25' W 120°52'4 6.6
2017-Oct-04 05:57N 34°26' W 120°56'4 9.7
2017-Oct-04 05:30N 34°28' W 121°00'510.3
2017-Oct-04 05:00N 34°31' W 121°06'510.4
2017-Oct-04 04:30N 34°34' W 121°11'510.4
2017-Oct-04 04:00N 34°37' W 121°16'510.4
2017-Oct-04 03:30N 34°39' W 121°22'510.5
2017-Oct-04 03:00N 34°42' W 121°27'510.4
2017-Oct-04 02:30N 34°45' W 121°32'510.5
2017-Oct-04 02:00N 34°48' W 121°38'510.3
2017-Oct-04 01:29N 34°51' W 121°43'  
Track history (hours):
 
Tides and Currents Weather Stations Pressure Air Temp Water Temp Dewpoint Dewpoint Depression Visibility Wind Speed Wind Dir Waves Ship Positions

Bay Bridge

Last reported at 2017-Oct-12 11:14 UTC. Time now 2017-Oct-18 20:40 UTC.
Position N 38°10' W 124°40'.

Length 267 m; draft 12 m.

Type: Ship (hazmat cat A). MMSI: 354120000.

Date/timePositionNaut miles runAvg speedWind from/ knotsBaromVisibWave heightAir tempDewpointWater temp
2017-Oct-12 11:14N 38°10' W 124°40'810.0
2017-Oct-12 10:27N 38°10' W 124°30'5 9.8
2017-Oct-12 09:59N 38°10' W 124°24'5 9.8
2017-Oct-12 09:30N 38°10' W 124°18'5 9.7
2017-Oct-12 09:00N 38°10' W 124°12'5 9.5
2017-Oct-12 08:30N 38°10' W 124°06'5 9.2
2017-Oct-12 08:00N 38°10' W 124°00'5 9.1
2017-Oct-12 07:30N 38°09' W 123°54'5 9.5
2017-Oct-12 07:00N 38°10' W 123°48'5 9.7
2017-Oct-12 06:30N 38°09' W 123°42'5 9.4
2017-Oct-12 06:00N 38°10' W 123°36'5 9.1
2017-Oct-12 05:30N 38°09' W 123°30'4 8.8
2017-Oct-12 05:00N 38°09' W 123°25'611.1
2017-Oct-12 04:30N 38°07' W 123°18'5 9.9
2017-Oct-12 04:00N 38°03' W 123°14'510.1
2017-Oct-12 03:30N 37°60' W 123°10'5 9.8
2017-Oct-12 03:00N 37°57' W 123°05'5 9.9
2017-Oct-12 02:30N 37°54' W 122°59'5 9.9
2017-Oct-12 02:00N 37°52' W 122°54'510.2
2017-Oct-12 01:30N 37°49' W 122°48'510.0
2017-Oct-12 01:00N 37°47' W 122°43'4 7.0
2017-Oct-12 00:30N 37°46' W 122°39'714.8
2017-Oct-12 00:00N 37°49' W 122°30'611.7
2017-Oct-11 23:31N 37°48' W 122°23'2 4.9
2017-Oct-11 23:00N 37°49' W 122°20'0 0.0
2017-Oct-11 22:30N 37°49' W 122°20'0 0.0
2017-Oct-11 22:00N 37°49' W 122°20'0 0.0
2017-Oct-11 21:30N 37°49' W 122°20'0 0.0
2017-Oct-11 21:00N 37°49' W 122°20'0 0.0
2017-Oct-11 20:30N 37°49' W 122°20'0 0.0
2017-Oct-11 20:00N 37°49' W 122°20'0 0.0
2017-Oct-11 19:30N 37°49' W 122°20'0 0.0
2017-Oct-11 19:00N 37°49' W 122°20'0 0.0
2017-Oct-11 18:30N 37°49' W 122°20'0 0.0
2017-Oct-11 18:00N 37°49' W 122°20'0 0.0
2017-Oct-11 17:30N 37°49' W 122°20'0 0.0
2017-Oct-11 17:00N 37°49' W 122°20'0 0.0
2017-Oct-11 00:00N 37°49' W 122°20'1 1.1
2017-Oct-10 23:30N 37°49' W 122°20'5 9.4
2017-Oct-10 23:00N 37°49' W 122°26'816.7
2017-Oct-10 22:30N 37°46' W 122°36'510.8
2017-Oct-10 22:00N 37°43' W 122°41'611.3
2017-Oct-10 21:30N 37°37' W 122°40'612.0
2017-Oct-10 21:00N 37°31' W 122°40'510.1
2017-Oct-10 20:30N 37°26' W 122°40'5 9.9
2017-Oct-10 20:00N 37°21' W 122°40'511.0
2017-Oct-10 19:30N 37°16' W 122°40'510.8
2017-Oct-10 19:00N 37°10' W 122°39'0 0.5
2017-Oct-10 18:29N 37°10' W 122°39'0 0.8
2017-Oct-10 17:59N 37°11' W 122°39'0 0.5
2017-Oct-10 17:29N 37°10' W 122°39'0 0.9
2017-Oct-10 16:59N 37°11' W 122°40'1 1.0
2017-Oct-10 16:23N 37°11' W 122°40'0 0.9
2017-Oct-10 15:59N 37°11' W 122°41'0 0.4
2017-Oct-10 15:29N 37°11' W 122°41'0 0.8
2017-Oct-10 14:58N 37°11' W 122°41'1 0.9
2017-Oct-10 14:00N 37°11' W 122°40'0 0.2
2017-Oct-10 13:30N 37°11' W 122°39'0 0.8
2017-Oct-10 12:58N 37°11' W 122°39'0 0.3
2017-Oct-10 12:30N 37°11' W 122°39'0 0.5
2017-Oct-10 12:00N 37°11' W 122°39'0 0.9
2017-Oct-10 11:30N 37°12' W 122°39'0 0.8
2017-Oct-10 11:00N 37°12' W 122°39'0 0.7
2017-Oct-10 10:30N 37°12' W 122°39'0 0.9
2017-Oct-10 10:00N 37°13' W 122°39'0 0.8
2017-Oct-10 09:29N 37°13' W 122°38'0 0.2
2017-Oct-10 08:59N 37°13' W 122°38'1 1.2
2017-Oct-10 08:29N 37°12' W 122°37'0 0.5
2017-Oct-10 07:59N 37°12' W 122°38'0 0.5
2017-Oct-10 07:29N 37°13' W 122°38'0 0.2
2017-Oct-10 06:59N 37°13' W 122°38'1 1.4
2017-Oct-10 06:30N 37°12' W 122°37'4 8.2
2017-Oct-10 06:00N 37°12' W 122°42'815.1
2017-Oct-10 05:30N 37°13' W 122°52'3 5.4
2017-Oct-10 05:00N 37°14' W 122°55'1 1.1
2017-Oct-10 04:31N 37°13' W 122°54'0 0.9
2017-Oct-10 04:00N 37°13' W 122°54'1 1.3
2017-Oct-10 03:31N 37°13' W 122°54'1 1.2
2017-Oct-10 03:00N 37°12' W 122°53'0 0.7
2017-Oct-10 02:31N 37°12' W 122°53'1 1.3
2017-Oct-10 02:00N 37°11' W 122°53'3 5.4
2017-Oct-10 01:30N 37°11' W 122°49'1 1.6
2017-Oct-10 01:01N 37°11' W 122°50'3 5.6
2017-Oct-10 00:30N 37°09' W 122°48'611.9
2017-Oct-10 00:00N 37°14' W 122°43'3 6.5
2017-Oct-09 23:30N 37°15' W 122°39'0 0.6
2017-Oct-09 23:00N 37°15' W 122°39'0 0.6
2017-Oct-09 22:30N 37°15' W 122°40'0 0.6
2017-Oct-09 22:00N 37°15' W 122°40'0 0.3
2017-Oct-09 21:30N 37°15' W 122°40'1 3.0
2017-Oct-09 21:00N 37°14' W 122°39'0 0.7
2017-Oct-09 20:30N 37°14' W 122°39'0 0.5
2017-Oct-09 20:00N 37°14' W 122°39'2 3.6
2017-Oct-09 19:30N 37°12' W 122°38'611.4
2017-Oct-09 19:00N 37°06' W 122°37'611.6
2017-Oct-09 18:30N 37°01' W 122°35'611.4
2017-Oct-09 18:00N 36°55' W 122°32'611.4
2017-Oct-09 17:29N 36°50' W 122°30'3911.5
2017-Oct-09 14:08N 36°14' W 122°11'211.5
2017-Oct-09 14:00N 36°13' W 122°10'2211.3
2017-Oct-09 12:03N 35°54' W 121°56'111.5
2017-Oct-09 11:57N 35°53' W 121°56'611.3
2017-Oct-09 11:27N 35°48' W 121°52'1711.4
2017-Oct-09 09:55N 35°33' W 121°41'511.4
2017-Oct-09 09:30N 35°29' W 121°38'611.6
2017-Oct-09 09:00N 35°24' W 121°34'711.9
2017-Oct-09 08:26N 35°19' W 121°30'510.9
2017-Oct-09 08:00N 35°15' W 121°27'611.4
2017-Oct-09 07:30N 35°10' W 121°23'612.0
2017-Oct-09 06:59N 35°05' W 121°19'611.1
2017-Oct-09 06:28N 34°60' W 121°15'511.7
2017-Oct-09 06:00N 34°55' W 121°12'611.4
2017-Oct-09 05:30N 34°50' W 121°09'611.3
2017-Oct-09 05:00N 34°45' W 121°05'611.4
2017-Oct-09 04:30N 34°40' W 121°02'611.8
2017-Oct-09 04:00N 34°35' W 120°58'611.8
2017-Oct-09 03:30N 34°30' W 120°54'510.8
2017-Oct-09 03:00N 34°26' W 120°50'5 9.8
2017-Oct-09 02:28N 34°25' W 120°44'510.0
2017-Oct-09 01:59N 34°23' W 120°38'5 9.7
2017-Oct-09 01:27N 34°22' W 120°32'410.0
2017-Oct-09 01:00N 34°21' W 120°27'5 9.9
2017-Oct-09 00:29N 34°19' W 120°21'510.0
2017-Oct-09 00:00N 34°18' W 120°16'510.0
2017-Oct-08 23:30N 34°17' W 120°10'5 9.7
2017-Oct-08 22:59N 34°15' W 120°04'5 9.9
2017-Oct-08 22:30N 34°14' W 119°58'5 9.7
2017-Oct-08 22:00N 34°13' W 119°53'5 9.7
2017-Oct-08 21:29N 34°11' W 119°47'510.0
2017-Oct-08 21:00N 34°10' W 119°41'5 9.6
2017-Oct-08 20:30N 34°09' W 119°36'5 9.9
2017-Oct-08 20:00N 34°08' W 119°30'611.4
2017-Oct-08 19:31N 34°06' W 119°23'611.5
2017-Oct-08 19:00N 34°05' W 119°17'611.2
2017-Oct-08 18:30N 34°02' W 119°11'611.2
2017-Oct-08 18:00N 33°59' W 119°05'611.6
2017-Oct-08 17:31N 33°56' W 118°59'611.5
2017-Oct-08 17:01N 33°54' W 118°53'611.3
2017-Oct-08 16:30N 33°51' W 118°47'611.6
2017-Oct-08 16:00N 33°48' W 118°41'611.4
2017-Oct-08 15:30N 33°45' W 118°35'611.3
2017-Oct-08 15:00N 33°42' W 118°29'510.5
2017-Oct-08 14:30N 33°40' W 118°23'510.4
2017-Oct-08 14:00N 33°38' W 118°17'5 9.9
2017-Oct-08 13:31N 33°40' W 118°12'4 7.4
2017-Oct-08 13:00N 33°44' W 118°11'1 2.0
2017-Oct-08 12:30N 33°45' W 118°12'0 0.0
2017-Oct-08 12:00N 33°45' W 118°12'0 0.0
2017-Oct-08 11:30N 33°45' W 118°12'0 0.0
2017-Oct-08 11:00N 33°45' W 118°12'0 0.0
2017-Oct-08 10:30N 33°45' W 118°12'0 0.0
2017-Oct-08 10:00N 33°45' W 118°12'0 0.0
2017-Oct-08 09:30N 33°45' W 118°12'0 0.0
2017-Oct-08 09:00N 33°45' W 118°12'0 0.1
2017-Oct-08 08:30N 33°45' W 118°12'0 0.1
2017-Oct-08 08:00N 33°45' W 118°12'0 0.0
2017-Oct-08 07:30N 33°45' W 118°12'0 0.0
2017-Oct-08 07:00N 33°45' W 118°12'0 0.1
2017-Oct-08 06:30N 33°45' W 118°12'0 0.0
2017-Oct-08 06:00N 33°45' W 118°12'0 0.1
2017-Oct-08 05:30N 33°45' W 118°12'0 0.1
2017-Oct-08 05:00N 33°45' W 118°12'0 0.1
2017-Oct-08 04:30N 33°45' W 118°12'0 0.0
2017-Oct-08 04:00N 33°45' W 118°12'0 0.0
2017-Oct-08 03:30N 33°45' W 118°12'0 0.0
2017-Oct-08 03:00N 33°45' W 118°12'0 0.0
2017-Oct-08 02:30N 33°45' W 118°12'0 0.0
2017-Oct-08 01:57N 33°45' W 118°12'0 0.0
2017-Oct-08 01:30N 33°45' W 118°12'0 0.1
2017-Oct-08 00:59N 33°45' W 118°12'0 0.1
2017-Oct-08 00:30N 33°45' W 118°12'0 0.1
2017-Oct-07 23:59N 33°45' W 118°12'0 0.0
2017-Oct-07 23:30N 33°45' W 118°12'0 0.1
2017-Oct-07 23:00N 33°45' W 118°12'0 0.0
2017-Oct-07 22:27N 33°45' W 118°12'0 0.1
2017-Oct-07 22:00N 33°45' W 118°12'0 0.1
2017-Oct-07 21:29N 33°45' W 118°12'0 0.0
2017-Oct-07 21:00N 33°45' W 118°12'0 0.1
2017-Oct-07 20:26N 33°45' W 118°12'0 0.0
2017-Oct-07 19:59N 33°45' W 118°12'0 0.0
2017-Oct-07 19:30N 33°45' W 118°12'0 0.0
2017-Oct-07 19:00N 33°45' W 118°12'0 0.1
2017-Oct-07 18:30N 33°45' W 118°12'0 0.0
2017-Oct-07 18:00N 33°45' W 118°12'0 0.0
2017-Oct-07 17:30N 33°45' W 118°12'0 0.0
2017-Oct-07 17:00N 33°45' W 118°12'0 0.1
2017-Oct-07 16:29N 33°45' W 118°12'0 0.1
2017-Oct-07 16:00N 33°45' W 118°12'0 0.0
2017-Oct-07 15:29N 33°45' W 118°12'0 0.0
2017-Oct-07 15:00N 33°45' W 118°12'0 0.0
2017-Oct-07 14:29N 33°45' W 118°12'0 0.0
2017-Oct-07 13:59N 33°45' W 118°12'0 0.1
2017-Oct-07 13:30N 33°45' W 118°12'0 0.0
2017-Oct-07 13:00N 33°45' W 118°12'0 0.1
2017-Oct-07 12:29N 33°45' W 118°12'0 0.1
2017-Oct-07 11:59N 33°45' W 118°12'0 0.1
2017-Oct-07 11:30N 33°45' W 118°12'0 0.1
2017-Oct-07 10:59N 33°45' W 118°12'0 0.1
2017-Oct-07 10:30N 33°45' W 118°12'0 0.0
2017-Oct-07 09:59N 33°45' W 118°12'0 0.0
2017-Oct-07 09:26N 33°45' W 118°12'0 0.0
2017-Oct-07 08:59N 33°45' W 118°12'0 0.0
2017-Oct-07 08:29N 33°45' W 118°12'0 0.0
2017-Oct-07 07:59N 33°45' W 118°12'0 0.1
2017-Oct-07 07:29N 33°45' W 118°12'0 0.1
2017-Oct-07 06:59N 33°45' W 118°12'0 0.0
2017-Oct-07 06:29N 33°45' W 118°12'0 0.1
2017-Oct-07 05:59N 33°45' W 118°12'0 0.0
2017-Oct-07 05:29N 33°45' W 118°12'0 0.1
2017-Oct-07 04:59N 33°45' W 118°12'0 0.0
2017-Oct-07 04:29N 33°45' W 118°12'0 0.1
2017-Oct-07 03:59N 33°45' W 118°12'0 0.1
2017-Oct-07 03:29N 33°45' W 118°12'0 0.1
2017-Oct-07 02:59N 33°45' W 118°12'0 0.0
2017-Oct-07 02:29N 33°45' W 118°12'0 0.1
2017-Oct-07 01:59N 33°45' W 118°12'0 0.0
2017-Oct-07 01:29N 33°45' W 118°12'0 0.1
2017-Oct-07 00:59N 33°45' W 118°12'0 0.1
2017-Oct-07 00:29N 33°45' W 118°12'0 0.0
2017-Oct-06 23:59N 33°45' W 118°12'0 0.0
2017-Oct-06 23:29N 33°45' W 118°12'0 0.0
2017-Oct-06 22:59N 33°45' W 118°12'0 0.0
2017-Oct-06 22:29N 33°45' W 118°12'0 0.0
2017-Oct-06 21:59N 33°45' W 118°12'0 0.0
2017-Oct-06 21:29N 33°45' W 118°12'0 0.0
2017-Oct-06 20:59N 33°45' W 118°12'0 0.0
2017-Oct-06 20:29N 33°45' W 118°12'0 0.0
2017-Oct-06 19:59N 33°45' W 118°12'0 0.0
2017-Oct-06 19:29N 33°45' W 118°12'0 0.0
2017-Oct-06 18:59N 33°45' W 118°12'0 0.0
2017-Oct-06 18:29N 33°45' W 118°12'0 0.0
2017-Oct-06 17:59N 33°45' W 118°12'0 0.1
2017-Oct-06 17:29N 33°45' W 118°12'0 0.0
2017-Oct-06 16:59N 33°45' W 118°12'0 0.1
2017-Oct-06 16:29N 33°45' W 118°12'0 0.0
2017-Oct-06 15:59N 33°45' W 118°12'0 0.0
2017-Oct-06 15:29N 33°45' W 118°12'0 0.1
2017-Oct-06 14:59N 33°45' W 118°12'0 0.0
2017-Oct-06 14:29N 33°45' W 118°12'0 0.0
2017-Oct-06 13:59N 33°45' W 118°12'0 0.1
2017-Oct-06 13:29N 33°45' W 118°12'0 0.0
2017-Oct-06 12:59N 33°45' W 118°12'0 0.1
2017-Oct-06 12:29N 33°45' W 118°12'0 0.1
2017-Oct-06 11:59N 33°45' W 118°12'0 0.1
2017-Oct-06 11:29N 33°45' W 118°12'0 0.1
2017-Oct-06 10:59N 33°45' W 118°12'0 0.0
2017-Oct-06 10:29N 33°45' W 118°12'0 0.1
2017-Oct-06 09:59N 33°45' W 118°12'0 0.1
2017-Oct-06 09:26N 33°45' W 118°12'0 0.1
2017-Oct-06 08:59N 33°45' W 118°12'0 0.0
2017-Oct-06 08:29N 33°45' W 118°12'0 0.0
2017-Oct-06 07:59N 33°45' W 118°12'0 0.1
2017-Oct-06 07:29N 33°45' W 118°12'0 0.0
2017-Oct-06 06:59N 33°45' W 118°12'0 0.0
2017-Oct-06 06:29N 33°45' W 118°12'0 0.1
2017-Oct-06 05:59N 33°45' W 118°12'0 0.1
2017-Oct-06 05:29N 33°45' W 118°12'0 0.1
2017-Oct-06 04:59N 33°45' W 118°12'0 0.1
2017-Oct-06 04:29N 33°45' W 118°12'0 0.0
2017-Oct-06 03:59N 33°45' W 118°12'0 0.0
2017-Oct-06 03:29N 33°45' W 118°12'0 0.0
2017-Oct-06 02:59N 33°45' W 118°12'0 0.0
2017-Oct-06 02:29N 33°45' W 118°12'0 0.1
2017-Oct-06 01:59N 33°45' W 118°12'0 0.1
2017-Oct-06 01:29N 33°45' W 118°12'0 0.0
2017-Oct-06 00:56N 33°45' W 118°12'0 0.0
2017-Oct-06 00:29N 33°45' W 118°12'0 0.0
2017-Oct-05 23:59N 33°45' W 118°12'0 0.0
2017-Oct-05 23:29N 33°45' W 118°12'0 0.0
2017-Oct-05 22:59N 33°45' W 118°12'0 0.0
2017-Oct-05 22:29N 33°45' W 118°12'0 0.0
2017-Oct-05 21:59N 33°45' W 118°12'0 0.0
2017-Oct-05 21:29N 33°45' W 118°12'0 0.0
2017-Oct-05 20:59N 33°45' W 118°12'0 0.0
2017-Oct-05 20:29N 33°45' W 118°12'0 0.1
2017-Oct-05 19:59N 33°45' W 118°12'0 0.0
2017-Oct-05 19:29N 33°45' W 118°12'0 0.1
2017-Oct-05 18:59N 33°45' W 118°12'0 0.0
2017-Oct-05 18:29N 33°45' W 118°12'0 0.0
2017-Oct-05 17:59N 33°45' W 118°12'0 0.1
2017-Oct-05 17:29N 33°45' W 118°12'0 0.0
2017-Oct-05 16:59N 33°45' W 118°12'0 0.0
2017-Oct-05 15:29N 33°45' W 118°12'0 0.0
2017-Oct-05 14:59N 33°45' W 118°12'0 0.1
2017-Oct-05 14:29N 33°45' W 118°12'0 0.1
2017-Oct-05 13:59N 33°45' W 118°12'0 0.0
2017-Oct-05 13:29N 33°45' W 118°12'0 0.1
2017-Oct-05 12:59N 33°45' W 118°12'0 0.0
2017-Oct-05 12:29N 33°45' W 118°12'0 0.1
2017-Oct-05 11:59N 33°45' W 118°12'0 0.0
2017-Oct-05 11:29N 33°45' W 118°12'0 0.0
2017-Oct-05 10:59N 33°45' W 118°12'0 0.0
2017-Oct-05 10:29N 33°45' W 118°12'0 0.0
2017-Oct-05 09:59N 33°45' W 118°12'0 0.1
2017-Oct-05 09:29N 33°45' W 118°12'0 0.1
2017-Oct-05 08:59N 33°45' W 118°12'0 0.1
2017-Oct-05 08:29N 33°45' W 118°12'0 0.0
2017-Oct-05 07:59N 33°45' W 118°12'0 0.0
2017-Oct-05 07:29N 33°45' W 118°12'0 0.1
2017-Oct-05 06:59N 33°45' W 118°12'0 0.0
2017-Oct-05 06:29N 33°45' W 118°12'0 0.0
2017-Oct-05 05:59N 33°45' W 118°12'0 0.0
2017-Oct-05 05:29N 33°45' W 118°12'0 0.0
2017-Oct-05 04:59N 33°45' W 118°12'0 0.1
2017-Oct-05 04:29N 33°45' W 118°12'0 0.1
2017-Oct-05 03:59N 33°45' W 118°12'0 0.1
2017-Oct-05 03:29N 33°45' W 118°12'0 0.1
2017-Oct-05 02:59N 33°45' W 118°12'0 0.0
2017-Oct-05 02:29N 33°45' W 118°12'0 0.1
2017-Oct-05 01:59N 33°45' W 118°12'0 0.0
2017-Oct-05 01:26N 33°45' W 118°12'0 0.0
2017-Oct-05 00:59N 33°45' W 118°12'0 0.1
2017-Oct-05 00:29N 33°45' W 118°12'0 0.1
2017-Oct-04 23:59N 33°45' W 118°12'0 0.0
2017-Oct-04 23:29N 33°45' W 118°12'0 0.0
2017-Oct-04 22:59N 33°45' W 118°12'0 0.1
2017-Oct-04 22:29N 33°45' W 118°12'0 0.0
2017-Oct-04 21:59N 33°45' W 118°12'0 0.2
2017-Oct-04 21:30N 33°45' W 118°12'2 3.9
2017-Oct-04 21:00N 33°43' W 118°11'510.2
2017-Oct-04 20:30N 33°38' W 118°11'4 9.0
2017-Oct-04 20:00N 33°36' W 118°16'510.3
2017-Oct-04 19:30N 33°37' W 118°22'510.9
2017-Oct-04 19:00N 33°40' W 118°28'510.7
2017-Oct-04 18:30N 33°42' W 118°34'510.7
2017-Oct-04 18:00N 33°45' W 118°39'510.8
2017-Oct-04 17:30N 33°48' W 118°45'510.9
2017-Oct-04 17:00N 33°50' W 118°51'510.8
2017-Oct-04 16:30N 33°53' W 118°56'510.9
2017-Oct-04 16:00N 33°56' W 119°02'510.8
2017-Oct-04 15:30N 33°58' W 119°08'511.0
2017-Oct-04 15:00N 34°01' W 119°13'510.9
2017-Oct-04 14:30N 34°03' W 119°19'510.8
2017-Oct-04 14:00N 34°05' W 119°26'510.0
2017-Oct-04 13:30N 34°06' W 119°32'5 9.9
2017-Oct-04 13:00N 34°07' W 119°37'5 9.9
2017-Oct-04 12:30N 34°09' W 119°43'5 9.8
2017-Oct-04 12:00N 34°10' W 119°49'5 9.7
2017-Oct-04 11:28N 34°11' W 119°55'4 9.7
2017-Oct-04 11:00N 34°12' W 120°00'5 9.8
2017-Oct-04 10:29N 34°14' W 120°06'5 9.9
2017-Oct-04 10:00N 34°15' W 120°12'510.0
2017-Oct-04 09:30N 34°16' W 120°17'5 9.9
2017-Oct-04 09:00N 34°18' W 120°23'5 9.9
2017-Oct-04 08:29N 34°19' W 120°29'5 9.6
2017-Oct-04 07:56N 34°20' W 120°35'410.0
2017-Oct-04 07:30N 34°21' W 120°40'6 9.8
2017-Oct-04 06:54N 34°23' W 120°47'410.0
2017-Oct-04 06:30N 34°25' W 120°52'4 6.6
2017-Oct-04 05:57N 34°26' W 120°56'4 9.7
2017-Oct-04 05:30N 34°28' W 121°00'510.3
2017-Oct-04 05:00N 34°31' W 121°06'510.4
2017-Oct-04 04:30N 34°34' W 121°11'510.4
2017-Oct-04 04:00N 34°37' W 121°16'510.4
2017-Oct-04 03:30N 34°39' W 121°22'510.5
2017-Oct-04 03:00N 34°42' W 121°27'510.4
2017-Oct-04 02:30N 34°45' W 121°32'510.5
2017-Oct-04 02:00N 34°48' W 121°38'510.3
2017-Oct-04 01:29N 34°51' W 121°43'  

Dump ship's entire track history